createdAt,value
2023-03-08T00:00:16.503Z,4.70
2023-03-08T00:02:48.440Z,4.70
2023-03-08T00:05:20.481Z,4.70
2023-03-08T00:07:55.890Z,4.70
2023-03-08T00:10:27.874Z,4.70
2023-03-08T00:13:00.098Z,4.70
2023-03-08T00:15:32.149Z,4.70
2023-03-08T00:18:05.228Z,4.70
2023-03-08T00:20:37.247Z,4.60
2023-03-08T00:23:10.068Z,4.60
2023-03-08T00:25:42.029Z,4.70
2023-03-08T00:28:14.072Z,4.60
2023-03-08T00:30:46.298Z,4.60
2023-03-08T00:33:18.332Z,4.60
2023-03-08T00:36:05.500Z,4.60
2023-03-08T00:38:38.507Z,4.70
2023-03-08T00:41:11.508Z,4.60
2023-03-08T00:43:43.634Z,4.60
2023-03-08T00:46:16.620Z,4.60
2023-03-08T00:48:49.757Z,4.50
2023-03-08T00:51:22.335Z,4.50
2023-03-08T00:53:54.531Z,4.50
2023-03-08T00:56:27.688Z,4.50
2023-03-08T00:58:59.753Z,4.60
2023-03-08T01:01:33.642Z,4.50
2023-03-08T01:04:05.741Z,4.60
2023-03-08T01:06:37.853Z,4.50
2023-03-08T01:09:11.678Z,4.50
2023-03-08T01:11:44.968Z,4.50
2023-03-08T01:14:18.812Z,4.40
2023-03-08T01:16:50.760Z,4.50
2023-03-08T01:19:22.744Z,4.40
2023-03-08T01:21:54.790Z,4.50
2023-03-08T01:24:26.755Z,4.50
2023-03-08T01:27:01.154Z,4.50
2023-03-08T01:29:33.182Z,4.40
2023-03-08T01:32:06.036Z,4.30
2023-03-08T01:34:38.803Z,4.30
2023-03-08T01:37:11.149Z,4.30
2023-03-08T01:39:43.257Z,4.20
2023-03-08T01:42:15.478Z,4.10
2023-03-08T01:44:56.406Z,4.00
2023-03-08T01:47:31.542Z,4.10
2023-03-08T01:50:20.204Z,4.10
2023-03-08T01:52:55.607Z,4.00
2023-03-08T01:55:27.927Z,3.90
2023-03-08T01:58:00.088Z,3.90
2023-03-08T02:00:32.069Z,3.80
2023-03-08T02:03:12.189Z,3.90
2023-03-08T02:05:44.773Z,3.70
2023-03-08T02:08:23.444Z,3.70
2023-03-08T02:10:58.063Z,3.70
2023-03-08T02:13:30.608Z,3.70
2023-03-08T02:16:06.607Z,3.60
2023-03-08T02:18:56.918Z,3.50
2023-03-08T02:21:31.080Z,3.50
2023-03-08T02:24:07.220Z,3.50
2023-03-08T02:26:39.252Z,3.50
2023-03-08T02:29:11.995Z,3.50
2023-03-08T02:31:44.602Z,3.60
2023-03-08T02:34:16.808Z,3.50
2023-03-08T02:36:48.940Z,3.40
2023-03-08T02:39:20.998Z,3.40
2023-03-08T02:41:53.008Z,3.30
2023-03-08T02:44:25.110Z,3.30
2023-03-08T02:46:58.452Z,3.20
2023-03-08T02:49:30.657Z,3.30
2023-03-08T02:52:03.799Z,3.20
2023-03-08T02:54:35.781Z,3.20
2023-03-08T02:57:07.852Z,3.10
2023-03-08T02:59:41.926Z,3.10
2023-03-08T03:02:14.277Z,3.10
2023-03-08T03:04:46.585Z,3.10
2023-03-08T03:07:18.546Z,3.10
2023-03-08T03:09:51.247Z,3.10
2023-03-08T03:12:23.817Z,3.00
2023-03-08T03:14:55.962Z,3.00
2023-03-08T03:17:28.479Z,3.00
2023-03-08T03:20:01.145Z,2.90
2023-03-08T03:22:33.428Z,3.00
2023-03-08T03:25:06.541Z,2.90
2023-03-08T03:27:38.792Z,3.00
2023-03-08T03:32:59.251Z,2.90
2023-03-08T03:35:38.947Z,2.90
2023-03-08T03:38:12.580Z,2.90
2023-03-08T03:40:46.278Z,2.90
2023-03-08T03:43:19.347Z,2.90
2023-03-08T03:46:03.690Z,3.00
2023-03-08T03:48:37.085Z,2.90
2023-03-08T03:51:17.006Z,2.90
2023-03-08T03:53:53.332Z,2.90
2023-03-08T03:56:28.827Z,2.70
2023-03-08T03:59:05.490Z,2.70
2023-03-08T04:01:37.933Z,2.60
2023-03-08T04:04:22.363Z,2.60
2023-03-08T04:06:55.078Z,2.50
2023-03-08T04:09:30.945Z,2.50
2023-03-08T04:12:16.644Z,2.50
2023-03-08T04:14:49.737Z,2.50
2023-03-08T04:17:23.776Z,2.40
2023-03-08T04:19:58.776Z,2.40
2023-03-08T04:22:32.920Z,2.40
2023-03-08T04:25:12.276Z,2.40
2023-03-08T04:27:53.442Z,2.40
2023-03-08T04:30:26.566Z,2.30
2023-03-08T04:33:00.528Z,2.20
2023-03-08T04:35:40.625Z,2.10
2023-03-08T04:38:13.322Z,2.20
2023-03-08T04:41:13.808Z,2.30
2023-03-08T04:44:01.099Z,2.40
2023-03-08T04:46:41.793Z,2.40
2023-03-08T04:49:17.457Z,2.40
2023-03-08T04:51:54.345Z,2.40
2023-03-08T04:54:28.067Z,2.30
2023-03-08T04:57:06.447Z,2.40
2023-03-08T04:59:40.072Z,2.30
2023-03-08T05:02:12.629Z,2.40
2023-03-08T05:04:45.971Z,2.50
2023-03-08T05:07:18.386Z,2.50
2023-03-08T05:09:52.287Z,2.60
2023-03-08T05:12:24.487Z,2.60
2023-03-08T05:15:01.339Z,2.60
2023-03-08T05:17:34.052Z,2.50
2023-03-08T05:20:07.971Z,2.40
2023-03-08T05:22:57.723Z,2.40
2023-03-08T05:25:33.953Z,2.40
2023-03-08T05:28:07.993Z,2.40
2023-03-08T05:30:40.604Z,2.40
2023-03-08T05:33:12.991Z,2.40
2023-03-08T05:35:53.740Z,2.30
2023-03-08T05:38:26.978Z,2.40
2023-03-08T05:41:04.739Z,2.40
2023-03-08T05:43:37.133Z,2.40
2023-03-08T05:46:14.568Z,2.40
2023-03-08T05:48:48.075Z,2.40
2023-03-08T05:51:23.233Z,2.40
2023-03-08T05:53:55.872Z,2.50
2023-03-08T05:56:28.537Z,2.50
2023-03-08T05:59:10.725Z,2.60
2023-03-08T06:01:42.914Z,2.60
2023-03-08T06:04:25.754Z,2.50
2023-03-08T06:06:59.697Z,2.50
2023-03-08T06:09:38.882Z,2.50
2023-03-08T06:12:13.324Z,2.60
2023-03-08T06:14:46.036Z,2.60
2023-03-08T06:17:20.058Z,2.60
2023-03-08T06:19:54.886Z,2.70
2023-03-08T06:22:27.794Z,2.70
2023-03-08T06:25:00.893Z,2.80
2023-03-08T06:27:38.690Z,2.80
2023-03-08T06:30:19.105Z,2.90
2023-03-08T06:32:52.222Z,3.00
2023-03-08T06:35:25.023Z,3.00
2023-03-08T06:38:02.613Z,3.10
2023-03-08T06:40:36.252Z,3.10
2023-03-08T06:43:08.951Z,3.20
2023-03-08T06:45:41.464Z,3.20
2023-03-08T06:48:14.714Z,3.40
2023-03-08T06:50:47.416Z,3.40
2023-03-08T06:53:21.081Z,3.50
2023-03-08T06:56:12.333Z,3.50
2023-03-08T06:58:46.125Z,3.60
2023-03-08T07:01:19.033Z,3.70
2023-03-08T07:03:52.829Z,3.70
2023-03-08T07:06:25.098Z,3.70
2023-03-08T07:08:57.321Z,3.70
2023-03-08T07:11:31.110Z,3.80
2023-03-08T07:14:03.412Z,3.80
2023-03-08T07:16:35.548Z,3.80
2023-03-08T07:19:07.611Z,3.90
2023-03-08T07:21:39.668Z,3.90
2023-03-08T07:24:11.974Z,4.00
2023-03-08T07:26:44.001Z,4.00
2023-03-08T07:29:16.071Z,4.00
2023-03-08T07:31:48.088Z,4.10
2023-03-08T07:34:20.120Z,4.10
2023-03-08T07:36:52.444Z,4.10
2023-03-08T07:39:24.469Z,4.20
2023-03-08T07:41:56.568Z,4.20
2023-03-08T07:44:28.775Z,4.20
2023-03-08T07:47:00.792Z,4.30
2023-03-08T07:49:33.064Z,4.40
2023-03-08T07:52:05.393Z,4.40
2023-03-08T07:54:37.417Z,4.50
2023-03-08T07:57:15.692Z,4.60
2023-03-08T07:59:47.826Z,4.70
2023-03-08T08:02:20.708Z,4.70
2023-03-08T08:04:52.799Z,4.90
2023-03-08T08:07:24.905Z,5.00
2023-03-08T08:09:57.197Z,5.10
2023-03-08T08:12:29.199Z,5.20
2023-03-08T08:15:01.647Z,5.30
2023-03-08T08:17:33.988Z,5.30
2023-03-08T08:20:09.433Z,5.40
2023-03-08T08:22:41.512Z,5.60
2023-03-08T08:25:13.991Z,5.70
2023-03-08T08:27:46.533Z,5.80
2023-03-08T08:30:19.358Z,6.00
2023-03-08T08:32:51.408Z,6.10
2023-03-08T08:35:31.148Z,6.20
2023-03-08T08:38:09.748Z,6.30
2023-03-08T08:40:42.413Z,6.30
2023-03-08T08:43:14.510Z,6.40
2023-03-08T08:45:48.415Z,6.30
2023-03-08T08:48:20.521Z,6.30
2023-03-08T08:50:52.874Z,6.30
2023-03-08T08:53:25.340Z,6.30
2023-03-08T08:55:58.141Z,6.30
2023-03-08T08:58:30.300Z,6.40
2023-03-08T09:01:02.267Z,6.40
2023-03-08T09:03:34.524Z,6.40
2023-03-08T09:06:06.525Z,6.40
2023-03-08T09:08:38.650Z,6.40
2023-03-08T09:11:11.657Z,6.50
2023-03-08T09:13:43.722Z,6.50
2023-03-08T09:16:28.721Z,6.50
2023-03-08T09:19:03.571Z,6.60
2023-03-08T09:21:37.079Z,6.70
2023-03-08T09:24:11.490Z,6.70
2023-03-08T09:26:43.451Z,6.70
2023-03-08T09:29:15.500Z,6.70
2023-03-08T09:31:47.624Z,6.80
2023-03-08T09:34:19.672Z,6.90
2023-03-08T09:36:52.236Z,6.80
2023-03-08T09:39:24.963Z,6.80
2023-03-08T09:42:00.833Z,6.90
2023-03-08T09:44:48.868Z,6.90
2023-03-08T09:48:06.992Z,7.00
2023-03-08T09:50:49.325Z,7.10
2023-03-08T09:53:49.689Z,7.20
2023-03-08T09:56:32.366Z,7.30
2023-03-08T09:59:36.664Z,7.40
2023-03-08T10:02:26.004Z,7.50
2023-03-08T10:05:13.406Z,7.40
2023-03-08T10:07:52.689Z,7.40
2023-03-08T10:10:42.124Z,7.60
2023-03-08T10:13:33.966Z,7.70
2023-03-08T10:16:33.330Z,7.90
2023-03-08T10:19:17.938Z,8.10
2023-03-08T10:21:51.681Z,8.20
2023-03-08T10:24:31.102Z,8.10
2023-03-08T10:27:25.817Z,8.00
2023-03-08T10:30:01.799Z,7.90
2023-03-08T10:32:43.852Z,7.90
2023-03-08T10:35:17.287Z,7.90
2023-03-08T10:37:52.494Z,7.80
2023-03-08T10:40:24.735Z,7.90
2023-03-08T10:43:01.187Z,7.90
2023-03-08T10:45:33.943Z,7.90
2023-03-08T10:48:06.687Z,8.00
2023-03-08T10:50:38.719Z,8.00
2023-03-08T10:53:14.795Z,8.10
2023-03-08T10:55:49.246Z,8.10
2023-03-08T10:58:38.808Z,8.10
2023-03-08T11:01:32.454Z,8.00
2023-03-08T11:04:19.649Z,8.00
2023-03-08T11:06:51.871Z,8.10
2023-03-08T11:09:29.509Z,7.90
2023-03-08T11:12:01.524Z,7.90
2023-03-08T11:14:33.999Z,7.90
2023-03-08T11:17:17.140Z,7.90
2023-03-08T11:19:57.589Z,7.90
2023-03-08T11:22:36.270Z,7.90
2023-03-08T11:25:25.334Z,7.90
2023-03-08T11:28:35.204Z,7.90
2023-03-08T11:31:07.285Z,7.90
2023-03-08T11:34:11.115Z,8.00
2023-03-08T11:37:02.424Z,7.90
2023-03-08T11:39:42.617Z,7.90
2023-03-08T11:42:35.176Z,7.90
2023-03-08T11:45:32.820Z,7.80
2023-03-08T11:48:04.782Z,7.80
2023-03-08T11:50:49.722Z,7.80
2023-03-08T11:53:35.842Z,7.80
2023-03-08T11:56:28.959Z,7.80
2023-03-08T11:59:10.878Z,7.80
2023-03-08T12:02:13.973Z,7.90
2023-03-08T12:05:02.126Z,7.80
2023-03-08T12:07:39.840Z,7.80
2023-03-08T12:10:26.949Z,7.90
2023-03-08T12:13:38.455Z,7.90
2023-03-08T12:16:32.400Z,7.90
2023-03-08T12:19:10.872Z,8.00
2023-03-08T12:21:56.306Z,8.00
2023-03-08T12:24:48.869Z,8.00
2023-03-08T12:27:45.820Z,8.00
2023-03-08T12:30:58.722Z,8.10
2023-03-08T12:33:32.613Z,8.20
2023-03-08T12:36:17.490Z,8.30
2023-03-08T12:38:56.869Z,8.40
2023-03-08T12:41:31.860Z,8.40
2023-03-08T12:44:04.112Z,8.50
2023-03-08T12:47:02.150Z,8.60
2023-03-08T12:49:44.929Z,8.60
2023-03-08T12:52:19.897Z,8.70
2023-03-08T12:55:01.456Z,8.90
2023-03-08T12:57:42.954Z,8.90
2023-03-08T13:00:23.815Z,9.00
2023-03-08T13:03:06.693Z,9.10
2023-03-08T13:05:40.278Z,9.20
2023-03-08T13:08:15.298Z,9.20
2023-03-08T13:10:50.526Z,9.30
2023-03-08T13:13:50.261Z,9.40
2023-03-08T13:16:32.174Z,9.40
2023-03-08T13:19:16.889Z,9.50
2023-03-08T13:22:00.510Z,9.50
2023-03-08T13:24:45.066Z,9.60
2023-03-08T13:28:04.063Z,9.70
2023-03-08T13:30:38.876Z,9.80
2023-03-08T13:33:19.078Z,10.20
2023-03-08T13:36:02.418Z,10.50
2023-03-08T13:38:37.822Z,10.70
2023-03-08T13:41:10.256Z,10.90
2023-03-08T13:43:42.516Z,11.10
2023-03-08T13:46:18.678Z,11.30
2023-03-08T13:48:51.023Z,11.50
2023-03-08T13:51:26.850Z,11.50
2023-03-08T13:53:58.936Z,11.60
2023-03-08T13:56:31.150Z,11.70
2023-03-08T13:59:03.293Z,11.70
2023-03-08T14:01:46.247Z,11.60
2023-03-08T14:04:28.511Z,12.20
2023-03-08T14:07:01.471Z,12.00
2023-03-08T14:09:33.694Z,11.90
2023-03-08T14:12:07.339Z,12.30
2023-03-08T14:14:40.713Z,12.20
2023-03-08T14:17:27.280Z,12.30
2023-03-08T14:20:07.518Z,12.40
2023-03-08T14:22:40.615Z,12.30
2023-03-08T14:25:22.039Z,12.30
2023-03-08T14:27:55.138Z,12.20
2023-03-08T14:30:30.171Z,12.20
2023-03-08T14:33:15.764Z,12.20
2023-03-08T14:35:57.778Z,12.20
2023-03-08T14:38:32.504Z,12.20
2023-03-08T14:41:10.322Z,12.20
2023-03-08T14:43:50.375Z,12.30
2023-03-08T14:46:23.626Z,12.50
2023-03-08T14:49:04.950Z,12.60
2023-03-08T14:51:41.751Z,12.50
2023-03-08T14:54:31.446Z,12.70
2023-03-08T14:57:19.883Z,12.70
2023-03-08T14:59:52.765Z,12.80
2023-03-08T15:02:24.747Z,13.40
2023-03-08T15:04:56.708Z,13.60
2023-03-08T15:07:34.156Z,13.40
2023-03-08T15:10:07.602Z,13.30
2023-03-08T15:12:40.965Z,13.30
2023-03-08T15:25:29.676Z,13.40
2023-03-08T15:28:01.983Z,13.10
2023-03-08T15:30:34.525Z,12.90
2023-03-08T15:33:06.766Z,12.80
2023-03-08T15:35:39.389Z,12.80
2023-03-08T15:38:17.075Z,12.80
2023-03-08T15:40:49.093Z,12.80
2023-03-08T15:43:21.160Z,12.70
2023-03-08T15:45:53.517Z,12.80
2023-03-08T15:48:25.582Z,12.60
2023-03-08T15:50:58.527Z,12.50
2023-03-08T15:53:35.719Z,12.70
2023-03-08T15:56:08.214Z,12.70
2023-03-08T15:58:40.364Z,12.70
2023-03-08T16:01:12.530Z,12.70
2023-03-08T16:03:44.601Z,12.80
2023-03-08T16:06:17.665Z,12.80
2023-03-08T16:08:49.910Z,12.90
2023-03-08T16:11:22.854Z,12.90
2023-03-08T16:13:54.862Z,12.80
2023-03-08T16:16:44.484Z,12.60
2023-03-08T16:19:17.352Z,12.60
2023-03-08T16:21:51.729Z,12.60
2023-03-08T16:24:23.684Z,12.50
2023-03-08T16:26:56.544Z,12.40
2023-03-08T16:29:28.620Z,12.40
2023-03-08T16:32:01.160Z,12.40
2023-03-08T16:34:33.364Z,12.30
2023-03-08T16:37:05.791Z,12.30
2023-03-08T16:39:37.763Z,12.20
2023-03-08T16:42:13.605Z,12.20
2023-03-08T16:44:50.654Z,12.20
2023-03-08T16:47:24.779Z,12.20
2023-03-08T16:49:56.807Z,12.30
2023-03-08T16:52:28.920Z,12.20
2023-03-08T16:55:00.994Z,12.20
2023-03-08T16:57:33.177Z,12.00
2023-03-08T17:00:06.689Z,12.00
2023-03-08T17:02:39.182Z,11.90
2023-03-08T17:05:12.917Z,11.90
2023-03-08T17:07:47.141Z,12.00
2023-03-08T17:10:19.230Z,11.90
2023-03-08T17:12:51.390Z,11.90
2023-03-08T17:15:23.333Z,11.90
2023-03-08T17:17:56.064Z,11.80
2023-03-08T17:20:28.028Z,11.80
2023-03-08T17:23:00.285Z,11.80
2023-03-08T17:25:35.561Z,11.80
2023-03-08T17:28:07.894Z,11.70
2023-03-08T17:30:41.444Z,11.70
2023-03-08T17:33:13.653Z,11.70
2023-03-08T17:35:45.739Z,11.60
2023-03-08T17:38:17.879Z,11.60
2023-03-08T17:40:49.936Z,11.60
2023-03-08T17:43:21.924Z,11.60
2023-03-08T17:45:59.294Z,11.60
2023-03-08T17:48:31.852Z,11.40
2023-03-08T17:51:25.001Z,11.40
2023-03-08T17:54:14.707Z,11.40
2023-03-08T17:56:49.717Z,11.40
2023-03-08T17:59:21.749Z,11.40
2023-03-08T18:01:54.659Z,11.40
2023-03-08T18:04:27.315Z,11.40
2023-03-08T18:07:04.009Z,11.30
2023-03-08T18:09:38.939Z,11.30
2023-03-08T18:12:13.867Z,11.20
2023-03-08T18:18:56.440Z,11.10
2023-03-08T18:21:30.993Z,11.00
2023-03-08T18:24:05.346Z,11.00
2023-03-08T18:26:53.887Z,11.00
2023-03-08T18:29:25.924Z,11.10
2023-03-08T18:31:57.998Z,11.10
2023-03-08T18:34:30.102Z,11.20
2023-03-08T18:37:02.320Z,11.20
2023-03-08T18:39:34.323Z,11.20
2023-03-08T18:42:06.554Z,11.20
2023-03-08T18:44:38.835Z,11.20
2023-03-08T18:47:10.930Z,11.30
2023-03-08T18:49:44.058Z,11.30
2023-03-08T18:52:16.553Z,11.20
2023-03-08T18:54:49.836Z,11.40
2023-03-08T18:57:25.594Z,11.40
2023-03-08T18:59:57.780Z,11.40
2023-03-08T19:02:30.024Z,11.30
2023-03-08T19:05:02.796Z,11.40
2023-03-08T19:07:34.927Z,11.40
2023-03-08T19:10:07.519Z,11.40
2023-03-08T19:12:41.273Z,11.30
2023-03-08T19:15:15.662Z,11.10
2023-03-08T19:17:48.968Z,11.00
2023-03-08T19:20:21.092Z,10.80
2023-03-08T19:22:53.697Z,10.60
2023-03-08T19:25:28.613Z,10.40
2023-03-08T19:28:01.044Z,10.10
2023-03-08T19:30:35.705Z,9.80
2023-03-08T19:33:07.994Z,9.50
2023-03-08T19:35:40.756Z,9.30
2023-03-08T19:38:19.331Z,9.10
2023-03-08T19:43:55.467Z,8.90
2023-03-08T19:46:27.580Z,8.80
2023-03-08T19:48:59.810Z,8.70
2023-03-08T19:51:32.176Z,8.60
2023-03-08T19:54:06.135Z,8.50
2023-03-08T19:56:38.204Z,8.50
2023-03-08T19:59:11.263Z,8.50
2023-03-08T20:01:43.640Z,8.50
2023-03-08T20:04:16.481Z,8.30
2023-03-08T20:06:50.163Z,8.20
2023-03-08T20:09:22.890Z,8.10
2023-03-08T20:11:58.778Z,8.00
2023-03-08T20:14:31.383Z,8.00
2023-03-08T20:17:05.275Z,8.00
2023-03-08T20:19:37.531Z,7.90
2023-03-08T20:22:10.782Z,7.90
2023-03-08T20:24:43.230Z,7.80
2023-03-08T20:27:15.479Z,7.80
2023-03-08T20:29:47.549Z,7.80
2023-03-08T20:32:20.058Z,7.80
2023-03-08T20:34:52.273Z,7.80
2023-03-08T20:37:24.317Z,7.80
2023-03-08T20:39:58.985Z,7.80
2023-03-08T20:42:31.466Z,7.80
2023-03-08T20:45:07.031Z,7.80
2023-03-08T20:47:39.429Z,7.80
2023-03-08T20:50:11.984Z,7.70
2023-03-08T20:52:44.202Z,7.70
2023-03-08T20:55:16.634Z,7.80
2023-03-08T20:57:51.034Z,7.80
2023-03-08T21:00:25.667Z,7.80
2023-03-08T21:02:59.543Z,7.80
2023-03-08T21:05:38.459Z,7.80
2023-03-08T21:08:11.236Z,7.80
2023-03-08T21:10:43.687Z,7.80
2023-03-08T21:13:19.458Z,7.70
2023-03-08T21:15:59.954Z,7.70
2023-03-08T21:18:32.712Z,7.70
2023-03-08T21:21:07.874Z,7.70
2023-03-08T21:23:40.412Z,7.70
2023-03-08T21:26:14.203Z,7.80
2023-03-08T21:28:47.336Z,7.80
2023-03-08T21:31:20.459Z,7.70
2023-03-08T21:33:53.918Z,7.70
2023-03-08T21:36:26.844Z,7.80
2023-03-08T21:39:00.576Z,7.70
2023-03-08T21:41:33.977Z,7.70
2023-03-08T21:44:11.192Z,7.70
2023-03-08T21:47:00.024Z,7.70
2023-03-08T21:49:35.799Z,7.70
2023-03-08T21:52:08.198Z,7.70
2023-03-08T21:54:44.447Z,7.70
2023-03-08T21:57:17.329Z,7.70
2023-03-08T21:59:52.776Z,7.80
2023-03-08T22:02:26.985Z,7.70
2023-03-08T22:05:02.104Z,7.80
2023-03-08T22:07:34.990Z,7.80
2023-03-08T22:10:14.627Z,7.80
2023-03-08T22:12:48.085Z,7.80
2023-03-08T22:15:21.032Z,7.80
2023-03-08T22:17:54.127Z,7.80
2023-03-08T22:20:27.961Z,7.80
2023-03-08T22:23:01.106Z,7.80
2023-03-08T22:25:33.490Z,7.80
2023-03-08T22:28:05.877Z,7.80
2023-03-08T22:30:41.108Z,7.80
2023-03-08T22:33:13.952Z,7.80
2023-03-08T22:35:48.142Z,7.80
2023-03-08T22:38:21.170Z,7.80
2023-03-08T22:40:53.975Z,7.80
2023-03-08T22:43:27.064Z,7.80
2023-03-08T22:46:07.898Z,7.80
2023-03-08T22:48:40.478Z,7.80
2023-03-08T22:51:14.503Z,7.80
2023-03-08T22:53:47.029Z,7.80
2023-03-08T22:56:26.625Z,7.80
2023-03-08T22:59:00.029Z,7.80
2023-03-08T23:01:33.592Z,7.80
2023-03-08T23:04:07.409Z,7.80
2023-03-08T23:06:40.237Z,7.80
2023-03-08T23:09:13.785Z,7.80
2023-03-08T23:11:46.750Z,7.80
2023-03-08T23:14:19.277Z,7.80
2023-03-08T23:16:52.764Z,7.70
2023-03-08T23:19:25.286Z,7.70
2023-03-08T23:21:58.271Z,7.80
2023-03-08T23:24:31.091Z,7.90
2023-03-08T23:27:04.494Z,7.90
2023-03-08T23:29:37.591Z,7.90
2023-03-08T23:32:10.006Z,7.90
2023-03-08T23:34:43.284Z,7.90
2023-03-08T23:37:15.497Z,8.00
2023-03-08T23:39:47.723Z,8.00
2023-03-08T23:42:20.343Z,8.00
2023-03-08T23:44:54.331Z,8.00
2023-03-08T23:47:26.694Z,8.10
2023-03-08T23:49:59.066Z,8.20
2023-03-08T23:52:31.259Z,8.30
2023-03-08T23:55:04.707Z,8.30
2023-03-08T23:57:37.282Z,8.40
